Time;durP1;ratioP1;P1;durP2;ratioP2;P2;SDS_P1;SDS_P2;PMS_P1;PMS_P2;Temp;Humidity;BMP_temperature;BMP_pressure;BME280_temperature;BME280_humidity;BME280_pressure;Samples;Min_cycle;Max_cycle;Signal;HPM_P1;HPM_P2
2023/04/15 00:00:58;;;;;;;;;;;;;;;;;;5138564;27;19911;-67
2023/04/15 00:03:24;;;;;;;;;;;;;;;;;;5157258;27;20010;-67
2023/04/15 00:05:50;;;;;;;;;;;;;;;;;;5157140;27;19929;-67
2023/04/15 00:08:17;;;;;;;;;;;;;;;;;;5156965;27;19918;-67
2023/04/15 00:10:45;;;;;;;;;;;;;;;;;;5157057;27;19915;-67
2023/04/15 00:13:11;;;;;;;;;;;;;;;;;;5138038;27;19994;-67
2023/04/15 00:15:37;;;;;;;;;;;;;;;;;;5138492;27;19999;-67
2023/04/15 00:18:03;;;;;;;;;;;;;;;;;;5138324;27;19911;-67
2023/04/15 00:20:29;;;;;;;;;;;;;;;;;;5156835;27;19963;-67
2023/04/15 00:22:55;;;;;;;;;;;;;;;;;;5156860;27;19911;-67
2023/04/15 00:25:21;;;;;;;;;;;;;;;;;;5157155;27;19908;-67
2023/04/15 00:27:47;;;;;;;;;;;;;;;;;;5137696;27;20363;-67
2023/04/15 00:30:13;;;;;;;;;;;;;;;;;;5156732;27;19959;-67
2023/04/15 00:32:41;;;;;;;;;;;;;;;;;;5156742;27;19907;-67
2023/04/15 00:35:07;;;;;;;;;;;;;;;;;;5156181;27;19912;-67
2023/04/15 00:37:34;;;;;;;;;;;;;;;;;;5156679;27;20252;-67
2023/04/15 00:40:00;;;;;;;;;;;;;;;;;;5137858;27;20290;-67
2023/04/15 00:42:26;;;;;;;;;;;;;;;;;;5156148;27;19907;-67
2023/04/15 00:44:52;;;;;;;;;;;;;;;;;;5137838;27;20411;-67
2023/04/15 00:47:18;;;;;;;;;;;;;;;;;;5156134;27;20010;-67
2023/04/15 00:49:44;;;;;;;;;;;;;;;;;;5155956;27;20415;-67
2023/04/15 00:52:10;;;;;;;;;;;;;;;;;;5156323;27;20014;-67
2023/04/15 00:54:36;;;;;;;;;;;;;;;;;;5156144;27;19938;-66
2023/04/15 00:57:02;;;;;;;;;;;;;;;;;;5136619;27;19960;-67
2023/04/15 00:59:28;;;;;;;;;;;;;;;;;;5156098;27;20286;-67
2023/04/15 01:01:54;;;;;;;;;;;;;;;;;;5137546;27;19959;-68
2023/04/15 01:04:20;;;;;;;;;;;;;;;;;;5155712;27;19967;-67
2023/04/15 01:06:46;;;;;;;;;;;;;;;;;;5156010;27;20278;-67
2023/04/15 01:09:12;;;;;;;;;;;;;;;;;;5155846;27;19918;-67
2023/04/15 01:11:38;;;;;;;;;;;;;;;;;;5156005;27;20426;-66
2023/04/15 01:14:04;;;;;;;;;;;;;;;;;;5156289;27;19915;-66
2023/04/15 01:16:30;;;;;;;;;;;;;;;;;;5136924;27;20329;-66
2023/04/15 01:18:56;;;;;;;;;;;;;;;;;;5156222;27;19915;-67
2023/04/15 01:21:22;;;;;;;;;;;;;;;;;;5155874;27;19911;-68
2023/04/15 01:23:48;;;;;;;;;;;;;;;;;;5155370;27;19914;-67
2023/04/15 01:26:15;;;;;;;;;;;;;;;;;;5155693;27;19922;-67
2023/04/15 01:28:41;;;;;;;;;;;;;;;;;;5156085;27;19914;-68
2023/04/15 01:31:07;;;;;;;;;;;;;;;;;;5136668;27;19994;-67
2023/04/15 01:33:33;;;;;;;;;;;;;;;;;;5155611;27;20346;-67
2023/04/15 01:35:59;;;;;;;;;;;;;;;;;;5155918;27;19965;-67
2023/04/15 01:38:25;;;;;;;;;;;;;;;;;;5155125;27;19907;-67
2023/04/15 01:40:51;;;;;;;;;;;;;;;;;;5155868;27;19907;-67
2023/04/15 01:43:17;;;;;;;;;;;;;;;;;;5155451;27;20362;-67
2023/04/15 01:45:43;;;;;;;;;;;;;;;;;;5154785;27;19911;-67
2023/04/15 01:48:09;;;;;;;;;;;;;;;;;;5155542;27;20477;-67
2023/04/15 01:50:36;;;;;;;;;;;;;;;;;;5155465;27;19914;-66
2023/04/15 01:53:02;;;;;;;;;;;;;;;;;;5155160;27;19922;-67
2023/04/15 01:55:29;;;;;;;;;;;;;;;;;;5155710;27;19907;-67
2023/04/15 01:57:56;;;;;;;;;;;;;;;;;;5155350;27;19914;-66
2023/04/15 02:00:22;;;;;;;;;;;;;;;;;;5154979;27;20459;-67
2023/04/15 02:02:48;;;;;;;;;;;;;;;;;;5155313;27;19907;-67
2023/04/15 02:05:14;;;;;;;;;;;;;;;;;;5155657;27;19915;-67
2023/04/15 02:07:41;;;;;;;;;;;;;;;;;;5155135;27;20321;-67
2023/04/15 02:10:08;;;;;;;;;;;;;;;;;;5159753;27;19907;-69
2023/04/15 02:12:34;;;;;;;;;;;;;;;;;;5159135;27;19908;-66
2023/04/15 02:15:00;;;;;;;;;;;;;;;;;;5159354;27;20256;-67
2023/04/15 02:17:26;;;;;;;;;;;;;;;;;;5140828;27;19969;-67
2023/04/15 02:19:52;;;;;;;;;;;;;;;;;;5159002;27;19959;-67
2023/04/15 02:22:18;;;;;;;;;;;;;;;;;;5159312;27;19907;-67
2023/04/15 02:24:45;;;;;;;;;;;;;;;;;;5159330;27;19914;-67
2023/04/15 02:27:11;;;;;;;;;;;;;;;;;;5140126;27;19964;-67
2023/04/15 02:29:36;;;;;;;;;;;;;;;;;;5159204;27;19911;-67
2023/04/15 02:32:03;;;;;;;;;;;;;;;;;;5159241;27;19918;-67
2023/04/15 02:34:30;;;;;;;;;;;;;;;;;;5158606;27;19907;-66
2023/04/15 02:36:56;;;;;;;;;;;;;;;;;;5158868;27;19907;-67
2023/04/15 02:39:22;;;;;;;;;;;;;;;;;;5158796;27;20419;-66
2023/04/15 02:41:50;;;;;;;;;;;;;;;;;;5158485;27;19911;-67
2023/04/15 02:44:19;;;;;;;;;;;;;;;;;;5158771;27;19994;-67
2023/04/15 02:46:49;;;;;;;;;;;;;;;;;;5158303;27;19923;-66
2023/04/15 02:49:15;;;;;;;;;;;;;;;;;;5158243;27;19907;-67
2023/04/15 02:51:41;;;;;;;;;;;;;;;;;;5158588;27;20275;-66
2023/04/15 02:54:07;;;;;;;;;;;;;;;;;;5139989;27;20278;-67
2023/04/15 02:56:33;;;;;;;;;;;;;;;;;;5139582;27;19967;-66
2023/04/15 02:58:59;;;;;;;;;;;;;;;;;;5158530;27;19994;-65
2023/04/15 03:01:26;;;;;;;;;;;;;;;;;;5139844;27;19907;-67
2023/04/15 03:03:52;;;;;;;;;;;;;;;;;;5158059;27;19907;-66
2023/04/15 03:06:17;;;;;;;;;;;;;;;;;;5158244;27;19934;-67
2023/04/15 03:08:44;;;;;;;;;;;;;;;;;;5139423;27;20305;-67
2023/04/15 03:11:10;;;;;;;;;;;;;;;;;;5158256;27;19910;-67
2023/04/15 03:13:37;;;;;;;;;;;;;;;;;;5158241;27;19907;-66
2023/04/15 03:16:04;;;;;;;;;;;;;;;;;;5157765;27;19908;-67
2023/04/15 03:18:30;;;;;;;;;;;;;;;;;;5138992;27;20007;-66
2023/04/15 03:20:56;;;;;;;;;;;;;;;;;;5158302;27;20354;-67
2023/04/15 03:23:22;;;;;;;;;;;;;;;;;;5157895;27;19911;-67
2023/04/15 03:25:48;;;;;;;;;;;;;;;;;;5157972;27;19995;-67
2023/04/15 03:28:14;;;;;;;;;;;;;;;;;;5158354;27;19915;-67
2023/04/15 03:30:40;;;;;;;;;;;;;;;;;;5157448;27;20007;-67
2023/04/15 03:33:07;;;;;;;;;;;;;;;;;;5157757;27;19986;-67
2023/04/15 03:35:33;;;;;;;;;;;;;;;;;;5157969;27;19951;-66
2023/04/15 03:37:59;;;;;;;;;;;;;;;;;;5157396;27;19911;-68
2023/04/15 03:40:25;;;;;;;;;;;;;;;;;;5157757;27;19907;-66
2023/04/15 03:42:51;;;;;;;;;;;;;;;;;;5139102;27;19907;-67
2023/04/15 03:45:16;;;;;;;;;;;;;;;;;;5138993;27;20043;-68
2023/04/15 03:47:42;;;;;;;;;;;;;;;;;;5157431;27;19926;-68
2023/04/15 03:50:08;;;;;;;;;;;;;;;;;;5157467;27;20267;-67
2023/04/15 03:52:35;;;;;;;;;;;;;;;;;;5157228;27;19918;-67
2023/04/15 03:55:01;;;;;;;;;;;;;;;;;;5157469;27;19907;-67
2023/04/15 03:57:27;;;;;;;;;;;;;;;;;;5157328;27;19914;-67
2023/04/15 03:59:53;;;;;;;;;;;;;;;;;;5156858;27;20371;-67
2023/04/15 04:02:18;;;;;;;;;;;;;;;;;;5157304;27;20346;-67
2023/04/15 04:04:45;;;;;;;;;;;;;;;;;;5157209;27;20306;-66
2023/04/15 04:07:11;;;;;;;;;;;;;;;;;;5156761;27;19915;-66
2023/04/15 04:09:39;;;;;;;;;;;;;;;;;;5157074;27;19915;-66
2023/04/15 04:12:05;;;;;;;;;;;;;;;;;;5138158;27;19961;-67
2023/04/15 04:14:31;;;;;;;;;;;;;;;;;;5157042;27;20379;-68
2023/04/15 04:16:57;;;;;;;;;;;;;;;;;;5156956;27;19907;-67
2023/04/15 04:19:23;;;;;;;;;;;;;;;;;;5138037;27;19918;-66
2023/04/15 04:21:49;;;;;;;;;;;;;;;;;;5156982;27;19994;-67
2023/04/15 04:24:15;;;;;;;;;;;;;;;;;;5156855;27;19915;-67
2023/04/15 04:26:41;;;;;;;;;;;;;;;;;;5156384;27;19911;-68
2023/04/15 04:29:07;;;;;;;;;;;;;;;;;;5156773;27;19964;-66
2023/04/15 04:31:33;;;;;;;;;;;;;;;;;;5155815;27;19917;-67
2023/04/15 04:33:59;;;;;;;;;;;;;;;;;;5137564;27;20339;-67
2023/04/15 04:36:25;;;;;;;;;;;;;;;;;;5156605;27;19914;-67
2023/04/15 04:38:51;;;;;;;;;;;;;;;;;;5137918;27;20023;-66
2023/04/15 04:41:17;;;;;;;;;;;;;;;;;;5137512;27;19946;-67
2023/04/15 04:43:43;;;;;;;;;;;;;;;;;;5137812;27;19914;-67
2023/04/15 04:46:09;;;;;;;;;;;;;;;;;;5156076;27;19912;-66
2023/04/15 04:48:35;;;;;;;;;;;;;;;;;;5155979;27;19908;-67
2023/04/15 04:51:01;;;;;;;;;;;;;;;;;;5156284;27;19918;-66
2023/04/15 04:53:27;;;;;;;;;;;;;;;;;;5156390;27;19907;-68
2023/04/15 04:55:53;;;;;;;;;;;;;;;;;;5155994;27;20275;-67
2023/04/15 04:58:19;;;;;;;;;;;;;;;;;;5156167;27;19967;-68
2023/04/15 05:00:45;;;;;;;;;;;;;;;;;;5137428;27;20009;-67
2023/04/15 05:03:11;;;;;;;;;;;;;;;;;;5155621;27;19958;-67
2023/04/15 05:05:39;;;;;;;;;;;;;;;;;;5156047;27;19907;-67
2023/04/15 05:08:06;;;;;;;;;;;;;;;;;;5156034;27;20034;-67
2023/04/15 05:10:31;;;;;;;;;;;;;;;;;;5155491;27;20002;-67
2023/04/15 05:12:57;;;;;;;;;;;;;;;;;;5155805;27;19907;-67
2023/04/15 05:15:24;;;;;;;;;;;;;;;;;;5155464;27;19914;-67
2023/04/15 05:17:50;;;;;;;;;;;;;;;;;;5155823;27;19914;-67
2023/04/15 05:20:16;;;;;;;;;;;;;;;;;;5155777;27;20370;-67
2023/04/15 05:22:42;;;;;;;;;;;;;;;;;;5155281;27;20006;-67
2023/04/15 05:25:08;;;;;;;;;;;;;;;;;;5155627;27;19913;-67
2023/04/15 05:27:35;;;;;;;;;;;;;;;;;;5155757;27;20059;-67
2023/04/15 05:30:00;;;;;;;;;;;;;;;;;;5155002;27;19911;-66
2023/04/15 05:32:26;;;;;;;;;;;;;;;;;;5155559;27;19934;-66
2023/04/15 05:34:52;;;;;;;;;;;;;;;;;;5155537;27;19911;-66
2023/04/15 05:37:19;;;;;;;;;;;;;;;;;;5155158;27;19965;-66
2023/04/15 05:39:45;;;;;;;;;;;;;;;;;;5136865;27;20383;-67
2023/04/15 05:42:11;;;;;;;;;;;;;;;;;;5136657;27;19913;-66
2023/04/15 05:44:37;;;;;;;;;;;;;;;;;;5155071;27;19913;-67
2023/04/15 05:47:04;;;;;;;;;;;;;;;;;;5155123;27;19958;-67
2023/04/15 05:49:30;;;;;;;;;;;;;;;;;;5155267;27;19907;-66
2023/04/15 05:51:56;;;;;;;;;;;;;;;;;;5154900;27;19994;-66
2023/04/15 05:54:22;;;;;;;;;;;;;;;;;;5155347;27;19942;-67
2023/04/15 05:56:48;;;;;;;;;;;;;;;;;;5155429;27;19914;-66
2023/04/15 05:59:14;;;;;;;;;;;;;;;;;;5154842;27;19907;-67
2023/04/15 06:01:40;;;;;;;;;;;;;;;;;;5155263;27;19949;-66
2023/04/15 06:04:06;;;;;;;;;;;;;;;;;;5155184;27;19907;-66
2023/04/15 06:06:32;;;;;;;;;;;;;;;;;;5154910;27;19915;-67
2023/04/15 06:08:58;;;;;;;;;;;;;;;;;;5155190;27;19912;-66
2023/04/15 06:11:25;;;;;;;;;;;;;;;;;;5136602;27;19930;-68
2023/04/15 06:13:51;;;;;;;;;;;;;;;;;;5154916;27;19907;-66
2023/04/15 06:16:17;;;;;;;;;;;;;;;;;;5136537;27;20001;-67
2023/04/15 06:18:43;;;;;;;;;;;;;;;;;;5154613;27;19908;-68
2023/04/15 06:21:09;;;;;;;;;;;;;;;;;;5155280;27;19908;-68
2023/04/15 06:23:35;;;;;;;;;;;;;;;;;;5155451;27;19911;-69
2023/04/15 06:26:01;;;;;;;;;;;;;;;;;;5154782;27;20411;-69
2023/04/15 06:28:27;;;;;;;;;;;;;;;;;;5155097;27;19963;-69
2023/04/15 06:30:53;;;;;;;;;;;;;;;;;;5155008;27;20264;-68
2023/04/15 06:33:19;;;;;;;;;;;;;;;;;;5154960;27;19915;-67
2023/04/15 06:35:46;;;;;;;;;;;;;;;;;;5154974;27;19907;-66
2023/04/15 06:38:13;;;;;;;;;;;;;;;;;;5154899;27;19934;-68
2023/04/15 06:40:39;;;;;;;;;;;;;;;;;;5154755;27;19907;-66
2023/04/15 06:43:05;;;;;;;;;;;;;;;;;;5154919;27;19914;-66
2023/04/15 06:45:31;;;;;;;;;;;;;;;;;;5154971;27;20271;-66
2023/04/15 06:47:57;;;;;;;;;;;;;;;;;;5154188;27;19995;-67
2023/04/15 06:50:23;;;;;;;;;;;;;;;;;;5154768;27;20321;-66
2023/04/15 06:52:49;;;;;;;;;;;;;;;;;;5154856;27;19933;-67
2023/04/15 06:55:15;;;;;;;;;;;;;;;;;;5157195;27;19907;-67
2023/04/15 06:57:41;;;;;;;;;;;;;;;;;;5158552;27;19995;-67
2023/04/15 07:00:07;;;;;;;;;;;;;;;;;;5139889;27;19907;-66
2023/04/15 07:02:33;;;;;;;;;;;;;;;;;;5157954;27;19909;-66
2023/04/15 07:04:59;;;;;;;;;;;;;;;;;;5158291;27;19907;-66
2023/04/15 07:07:25;;;;;;;;;;;;;;;;;;5158127;27;19915;-67
2023/04/15 07:09:52;;;;;;;;;;;;;;;;;;5157752;27;20316;-67
2023/04/15 07:12:18;;;;;;;;;;;;;;;;;;5158135;27;19907;-67
2023/04/15 07:14:44;;;;;;;;;;;;;;;;;;5158537;27;20363;-67
2023/04/15 07:17:11;;;;;;;;;;;;;;;;;;5157698;27;19914;-67
2023/04/15 07:19:37;;;;;;;;;;;;;;;;;;5157972;27;19966;-66
2023/04/15 07:22:02;;;;;;;;;;;;;;;;;;5157628;27;19911;-67
2023/04/15 07:24:28;;;;;;;;;;;;;;;;;;5157964;27;19913;-68
2023/04/15 07:26:58;;;;;;;;;;;;;;;;;;5157866;27;19936;-67
2023/04/15 07:29:24;;;;;;;;;;;;;;;;;;5157600;27;20366;-67
2023/04/15 07:31:50;;;;;;;;;;;;;;;;;;5157819;27;19913;-67
2023/04/15 07:34:16;;;;;;;;;;;;;;;;;;5157885;27;19914;-67
2023/04/15 07:36:42;;;;;;;;;;;;;;;;;;5138697;27;19911;-67
2023/04/15 07:39:08;;;;;;;;;;;;;;;;;;5157618;27;19929;-67
2023/04/15 07:41:34;;;;;;;;;;;;;;;;;;5157505;27;19913;-67
2023/04/15 07:44:00;;;;;;;;;;;;;;;;;;5157511;27;20270;-67
2023/04/15 07:46:27;;;;;;;;;;;;;;;;;;5157246;27;20352;-67
2023/04/15 07:48:53;;;;;;;;;;;;;;;;;;5138835;27;19911;-68
2023/04/15 07:51:19;;;;;;;;;;;;;;;;;;5156887;27;20356;-67
2023/04/15 07:53:45;;;;;;;;;;;;;;;;;;5157871;27;19915;-67
2023/04/15 07:56:11;;;;;;;;;;;;;;;;;;5157438;27;20377;-67
2023/04/15 07:58:37;;;;;;;;;;;;;;;;;;5157000;27;19959;-68
2023/04/15 08:01:03;;;;;;;;;;;;;;;;;;5157390;27;19907;-67
2023/04/15 08:03:29;;;;;;;;;;;;;;;;;;5157262;27;19934;-67
2023/04/15 08:05:56;;;;;;;;;;;;;;;;;;5156626;27;19914;-67
2023/04/15 08:08:22;;;;;;;;;;;;;;;;;;5157046;27;20014;-68
2023/04/15 08:12:08;;;;;;;;;;;;;;;;;;5152619;27;19916;-66
2023/04/15 08:14:34;;;;;;;;;;;;;;;;;;5152847;27;19911;-67
2023/04/15 08:17:00;;;;;;;;;;;;;;;;;;5152582;27;19944;-66
2023/04/15 08:19:26;;;;;;;;;;;;;;;;;;5152245;27;20010;-66
2023/04/15 08:21:52;;;;;;;;;;;;;;;;;;5152628;27;19907;-66
2023/04/15 08:24:31;;;;;;;;;;;;;;;;;;5111836;27;19915;-66
2023/04/15 08:26:58;;;;;;;;;;;;;;;;;;5111088;28;20455;-67
2023/04/15 08:29:24;;;;;;;;;;;;;;;;;;5110171;28;20370;-68
2023/04/15 08:32:55;;;;;;;;;;;;;;;;;;5091241;27;19999;-65
2023/04/15 08:35:21;;;;;;;;;;;;;;;;;;5091726;28;19916;-66
2023/04/15 08:38:22;;;;;;;;;;;;;;;;;;5153255;27;20353;-66
2023/04/15 08:40:48;;;;;;;;;;;;;;;;;;5152325;27;19946;-67
2023/04/15 08:45:38;;;;;;;;;;;;;;;;;;5091475;28;19917;-66
2023/04/15 08:49:54;;;;;;;;;;;;;;;;;;5091583;27;20283;-65
2023/04/15 08:52:20;;;;;;;;;;;;;;;;;;5089816;28;20007;-66
2023/04/15 08:54:46;;;;;;;;;;;;;;;;;;5090710;28;20004;-66
2023/04/15 08:57:12;;;;;;;;;;;;;;;;;;5091035;28;19908;-66
2023/04/15 09:02:12;;;;;;;;;;;;;;;;;;5090992;27;19946;-66
2023/04/15 09:04:38;;;;;;;;;;;;;;;;;;5091245;28;19913;-67
2023/04/15 09:09:17;;;;;;;;;;;;;;;;;;5090934;27;19916;-67
2023/04/15 09:11:43;;;;;;;;;;;;;;;;;;5089855;28;19919;-66
2023/04/15 09:15:02;;;;;;;;;;;;;;;;;;5152635;27;20386;-66
2023/04/15 09:17:28;;;;;;;;;;;;;;;;;;5134010;27;20371;-67
2023/04/15 09:19:54;;;;;;;;;;;;;;;;;;5152410;27;19908;-67
2023/04/15 09:22:20;;;;;;;;;;;;;;;;;;5151938;27;19933;-67
2023/04/15 09:24:46;;;;;;;;;;;;;;;;;;5152391;27;19917;-67
2023/04/15 09:30:52;;;;;;;;;;;;;;;;;;5110937;27;19912;-66
2023/04/15 09:33:18;;;;;;;;;;;;;;;;;;5111787;28;20348;-66
2023/04/15 09:35:44;;;;;;;;;;;;;;;;;;5109808;28;19914;-66
2023/04/15 09:42:31;;;;;;;;;;;;;;;;;;5071635;28;19923;-67
2023/04/15 09:44:57;;;;;;;;;;;;;;;;;;5070482;28;19967;-67
2023/04/15 09:47:23;;;;;;;;;;;;;;;;;;5070905;28;19913;-67
2023/04/15 09:56:25;;;;;;;;;;;;;;;;;;5112235;27;20004;-67
2023/04/15 10:02:33;;;;;;;;;;;;;;;;;;5092000;27;19922;-67
2023/04/15 10:06:32;;;;;;;;;;;;;;;;;;5132321;27;20018;-66
2023/04/15 10:08:57;;;;;;;;;;;;;;;;;;5131973;28;19960;-68
2023/04/15 10:11:50;;;;;;;;;;;;;;;;;;5091157;27;19912;-66
2023/04/15 10:16:41;;;;;;;;;;;;;;;;;;5111653;27;19923;-65
2023/04/15 10:21:33;;;;;;;;;;;;;;;;;;5091626;27;20007;-67
2023/04/15 10:24:00;;;;;;;;;;;;;;;;;;5091180;28;19934;-67
2023/04/15 10:28:12;;;;;;;;;;;;;;;;;;5091377;27;19912;-66
2023/04/15 10:30:38;;;;;;;;;;;;;;;;;;5091386;28;19969;-66
2023/04/15 10:33:04;;;;;;;;;;;;;;;;;;5090627;28;19912;-66
2023/04/15 10:36:23;;;;;;;;;;;;;;;;;;5091767;27;20295;-67
2023/04/15 10:38:49;;;;;;;;;;;;;;;;;;5091412;28;20007;-68
2023/04/15 10:44:16;;;;;;;;;;;;;;;;;;5153102;27;19994;-66
2023/04/15 10:46:42;;;;;;;;;;;;;;;;;;5152533;27;20401;-67
2023/04/15 10:50:54;;;;;;;;;;;;;;;;;;5112267;27;20372;-67
2023/04/15 10:53:20;;;;;;;;;;;;;;;;;;5111079;28;20023;-66
2023/04/15 10:55:46;;;;;;;;;;;;;;;;;;5111457;28;20374;-67
2023/04/15 10:58:13;;;;;;;;;;;;;;;;;;5111443;28;19947;-66
2023/04/15 11:00:40;;;;;;;;;;;;;;;;;;5109732;28;20364;-67
2023/04/15 11:03:06;;;;;;;;;;;;;;;;;;5111686;28;20046;-66
2023/04/15 11:05:32;;;;;;;;;;;;;;;;;;5109993;28;19908;-66
2023/04/15 11:07:58;;;;;;;;;;;;;;;;;;5110980;28;20295;-67
2023/04/15 11:10:24;;;;;;;;;;;;;;;;;;5111080;28;19923;-68
2023/04/15 11:14:52;;;;;;;;;;;;;;;;;;5091254;27;19917;-68
2023/04/15 11:17:19;;;;;;;;;;;;;;;;;;5091126;28;20007;-67
2023/04/15 11:19:45;;;;;;;;;;;;;;;;;;5091130;28;19908;-66
2023/04/15 11:22:11;;;;;;;;;;;;;;;;;;5090648;28;19908;-67
2023/04/15 11:24:37;;;;;;;;;;;;;;;;;;5090852;28;20012;-67
2023/04/15 11:27:03;;;;;;;;;;;;;;;;;;5090961;28;20021;-68
2023/04/15 11:29:30;;;;;;;;;;;;;;;;;;5090596;28;19939;-67
2023/04/15 11:31:57;;;;;;;;;;;;;;;;;;5090679;28;19916;-67
2023/04/15 11:34:23;;;;;;;;;;;;;;;;;;5090942;28;19974;-66
2023/04/15 11:36:49;;;;;;;;;;;;;;;;;;5090274;28;19913;-67
2023/04/15 11:39:25;;;;;;;;;;;;;;;;;;5091615;27;19912;-68
2023/04/15 11:41:51;;;;;;;;;;;;;;;;;;5091555;28;19916;-66
2023/04/15 11:45:56;;;;;;;;;;;;;;;;;;5091729;27;19923;-67
2023/04/15 11:49:48;;;;;;;;;;;;;;;;;;5152399;27;19992;-67
2023/04/15 11:54:36;;;;;;;;;;;;;;;;;;5091877;27;19916;-67
2023/04/15 11:57:02;;;;;;;;;;;;;;;;;;5090977;28;20262;-68
2023/04/15 11:59:28;;;;;;;;;;;;;;;;;;5091094;28;19996;-67
2023/04/15 12:01:54;;;;;;;;;;;;;;;;;;5089822;28;19909;-66
2023/04/15 12:04:21;;;;;;;;;;;;;;;;;;5090495;28;20236;-66
2023/04/15 12:09:24;;;;;;;;;;;;;;;;;;5091988;27;20280;-66
2023/04/15 12:11:50;;;;;;;;;;;;;;;;;;5090681;28;19989;-66
2023/04/15 12:14:16;;;;;;;;;;;;;;;;;;5091008;28;19909;-67
2023/04/15 12:18:44;;;;;;;;;;;;;;;;;;5091035;27;19922;-67
2023/04/15 12:21:10;;;;;;;;;;;;;;;;;;5089912;28;20343;-67
2023/04/15 12:25:04;;;;;;;;;;;;;;;;;;5091366;27;19917;-65
2023/04/15 12:29:27;;;;;;;;;;;;;;;;;;5091322;27;19923;-66
2023/04/15 12:31:53;;;;;;;;;;;;;;;;;;5090890;28;20006;-67
2023/04/15 12:34:44;;;;;;;;;;;;;;;;;;5152995;27;20361;-66
2023/04/15 12:37:10;;;;;;;;;;;;;;;;;;5153053;27;19911;-68
2023/04/15 12:39:36;;;;;;;;;;;;;;;;;;5152594;27;19935;-68
2023/04/15 12:43:41;;;;;;;;;;;;;;;;;;5091646;27;19916;-67
2023/04/15 12:46:09;;;;;;;;;;;;;;;;;;5091201;28;20023;-67
2023/04/15 12:48:35;;;;;;;;;;;;;;;;;;5091098;28;19909;-67
2023/04/15 12:51:17;;;;;;;;;;;;;;;;;;5092070;27;20275;-67
2023/04/15 12:53:43;;;;;;;;;;;;;;;;;;5090093;28;19995;-67
2023/04/15 12:58:13;;;;;;;;;;;;;;;;;;5092150;27;19923;-67
2023/04/15 13:00:39;;;;;;;;;;;;;;;;;;5090195;28;20031;-68
2023/04/15 13:06:41;;;;;;;;;;;;;;;;;;5091476;27;19916;-67
2023/04/15 13:09:07;;;;;;;;;;;;;;;;;;5091575;28;20253;-67
2023/04/15 13:11:33;;;;;;;;;;;;;;;;;;5091121;28;19909;-67
2023/04/15 13:13:59;;;;;;;;;;;;;;;;;;5090617;28;19908;-67
2023/04/15 13:17:33;;;;;;;;;;;;;;;;;;5091250;27;20241;-67
2023/04/15 13:19:59;;;;;;;;;;;;;;;;;;5089958;28;19999;-68
2023/04/15 13:22:25;;;;;;;;;;;;;;;;;;5090791;28;20261;-67
2023/04/15 13:24:51;;;;;;;;;;;;;;;;;;5091129;28;19937;-67
2023/04/15 13:29:47;;;;;;;;;;;;;;;;;;5090976;28;19916;-65
2023/04/15 13:32:13;;;;;;;;;;;;;;;;;;5091537;28;20015;-66
2023/04/15 13:36:58;;;;;;;;;;;;;;;;;;5090793;28;19913;-67
2023/04/15 13:39:23;;;;;;;;;;;;;;;;;;5091273;28;19913;-67
2023/04/15 13:41:49;;;;;;;;;;;;;;;;;;5090674;28;19908;-67
2023/04/15 13:44:16;;;;;;;;;;;;;;;;;;5090975;28;19951;-66
2023/04/15 13:46:42;;;;;;;;;;;;;;;;;;5091041;28;19915;-67
2023/04/15 13:49:08;;;;;;;;;;;;;;;;;;5090529;28;19908;-67
2023/04/15 13:52:28;;;;;;;;;;;;;;;;;;5091367;28;19923;-67
2023/04/15 13:54:54;;;;;;;;;;;;;;;;;;5091269;28;20003;-67
2023/04/15 13:57:20;;;;;;;;;;;;;;;;;;5090821;28;19915;-67
2023/04/15 14:00:26;;;;;;;;;;;;;;;;;;5092206;27;19917;-68
2023/04/15 14:02:52;;;;;;;;;;;;;;;;;;5089565;28;20007;-67
2023/04/15 14:05:18;;;;;;;;;;;;;;;;;;5091414;28;19909;-68
2023/04/15 14:09:49;;;;;;;;;;;;;;;;;;5091875;27;19912;-67
2023/04/15 14:12:15;;;;;;;;;;;;;;;;;;5091037;28;19912;-67
2023/04/15 14:14:41;;;;;;;;;;;;;;;;;;5089965;28;19915;-67
2023/04/15 14:17:07;;;;;;;;;;;;;;;;;;5090856;28;19913;-67
2023/04/15 14:19:33;;;;;;;;;;;;;;;;;;5091073;28;19915;-67
2023/04/15 14:22:36;;;;;;;;;;;;;;;;;;5112066;27;20299;-66
2023/04/15 14:25:02;;;;;;;;;;;;;;;;;;5109931;28;20337;-68
2023/04/15 14:27:28;;;;;;;;;;;;;;;;;;5111914;28;19909;-66
2023/04/15 14:31:59;;;;;;;;;;;;;;;;;;5091177;27;19916;-67
2023/04/15 14:36:25;;;;;;;;;;;;;;;;;;5071781;28;20288;-66
2023/04/15 14:41:18;;;;;;;;;;;;;;;;;;5091568;27;20281;-68
2023/04/15 14:43:43;;;;;;;;;;;;;;;;;;5091303;28;19919;-68
2023/04/15 14:46:10;;;;;;;;;;;;;;;;;;5090687;28;20335;-70
2023/04/15 14:48:36;;;;;;;;;;;;;;;;;;5091293;28;20365;-68
2023/04/15 14:51:02;;;;;;;;;;;;;;;;;;5092121;28;19915;-67
2023/04/15 14:53:28;;;;;;;;;;;;;;;;;;5090597;28;20391;-66
2023/04/15 14:55:54;;;;;;;;;;;;;;;;;;5090979;28;19909;-66
2023/04/15 14:58:20;;;;;;;;;;;;;;;;;;5089533;28;19908;-67
2023/04/15 15:00:46;;;;;;;;;;;;;;;;;;5090358;28;19969;-66
2023/04/15 15:03:12;;;;;;;;;;;;;;;;;;5090818;28;19909;-67
2023/04/15 15:05:38;;;;;;;;;;;;;;;;;;5090791;28;19912;-66
2023/04/15 15:08:04;;;;;;;;;;;;;;;;;;5090313;28;19908;-66
2023/04/15 15:10:30;;;;;;;;;;;;;;;;;;5090579;28;20268;-68
2023/04/15 15:12:55;;;;;;;;;;;;;;;;;;5091322;28;19916;-68
2023/04/15 15:15:21;;;;;;;;;;;;;;;;;;5090317;28;19948;-66
2023/04/15 15:17:47;;;;;;;;;;;;;;;;;;5090480;28;20376;-67
2023/04/15 15:20:34;;;;;;;;;;;;;;;;;;5152464;27;20435;-66
2023/04/15 15:23:54;;;;;;;;;;;;;;;;;;5091028;27;19917;-65
2023/04/15 15:26:20;;;;;;;;;;;;;;;;;;5089815;28;20321;-65
2023/04/15 15:28:49;;;;;;;;;;;;;;;;;;5090498;28;19908;-66
2023/04/15 15:31:15;;;;;;;;;;;;;;;;;;5090944;28;20348;-66
2023/04/15 15:33:40;;;;;;;;;;;;;;;;;;5091517;28;19908;-67
2023/04/15 15:36:06;;;;;;;;;;;;;;;;;;5090612;28;20006;-67
2023/04/15 15:38:32;;;;;;;;;;;;;;;;;;5089757;28;19908;-67
2023/04/15 15:40:58;;;;;;;;;;;;;;;;;;5090981;28;19916;-67
2023/04/15 15:43:24;;;;;;;;;;;;;;;;;;5089156;28;19921;-67
2023/04/15 15:45:54;;;;;;;;;;;;;;;;;;5090795;28;19999;-67
2023/04/15 15:49:28;;;;;;;;;;;;;;;;;;5091208;27;19978;-68
2023/04/15 15:51:54;;;;;;;;;;;;;;;;;;5091422;28;20019;-66
2023/04/15 15:54:32;;;;;;;;;;;;;;;;;;5091955;28;19923;-66
2023/04/15 15:56:58;;;;;;;;;;;;;;;;;;5090706;28;20058;-67
2023/04/15 15:59:24;;;;;;;;;;;;;;;;;;5091177;28;20352;-67
2023/04/15 16:01:50;;;;;;;;;;;;;;;;;;5091076;28;19909;-67
2023/04/15 16:04:16;;;;;;;;;;;;;;;;;;5090571;28;19908;-67
2023/04/15 16:08:11;;;;;;;;;;;;;;;;;;5091420;27;20253;-66
2023/04/15 16:10:38;;;;;;;;;;;;;;;;;;5090705;28;19999;-65
2023/04/15 16:13:04;;;;;;;;;;;;;;;;;;5091286;28;20364;-68
2023/04/15 16:15:30;;;;;;;;;;;;;;;;;;5091361;28;19948;-66
2023/04/15 16:17:56;;;;;;;;;;;;;;;;;;5090763;28;20403;-68
2023/04/15 16:20:21;;;;;;;;;;;;;;;;;;5091032;28;19915;-67
2023/04/15 16:22:47;;;;;;;;;;;;;;;;;;5090969;28;19951;-67
2023/04/15 16:25:32;;;;;;;;;;;;;;;;;;5090905;27;20296;-67
2023/04/15 16:30:46;;;;;;;;;;;;;;;;;;5090923;27;19922;-68
2023/04/15 16:33:12;;;;;;;;;;;;;;;;;;5091215;28;20003;-67
2023/04/15 16:35:38;;;;;;;;;;;;;;;;;;5091259;28;20347;-67
2023/04/15 16:38:05;;;;;;;;;;;;;;;;;;5090520;28;19908;-66
2023/04/15 16:40:31;;;;;;;;;;;;;;;;;;5090918;28;20380;-66
2023/04/15 16:42:57;;;;;;;;;;;;;;;;;;5091173;28;19956;-66
2023/04/15 16:48:55;;;;;;;;;;;;;;;;;;5152547;27;20018;-66
2023/04/15 16:51:21;;;;;;;;;;;;;;;;;;5152602;27;19954;-66
2023/04/15 16:53:47;;;;;;;;;;;;;;;;;;5133648;27;19914;-66
2023/04/15 16:58:15;;;;;;;;;;;;;;;;;;5091827;27;19923;-66
2023/04/15 17:04:19;;;;;;;;;;;;;;;;;;5112091;27;19913;-67
2023/04/15 17:06:45;;;;;;;;;;;;;;;;;;5111471;28;20018;-66
2023/04/15 17:09:11;;;;;;;;;;;;;;;;;;5111458;28;19908;-66
2023/04/15 17:12:01;;;;;;;;;;;;;;;;;;5091322;27;19922;-67
2023/04/15 17:14:27;;;;;;;;;;;;;;;;;;5090949;28;19919;-66
2023/04/15 17:16:54;;;;;;;;;;;;;;;;;;5091306;28;19912;-66
2023/04/15 17:24:44;;;;;;;;;;;;;;;;;;5091961;27;19923;-67
2023/04/15 17:27:10;;;;;;;;;;;;;;;;;;5091124;28;19913;-66
2023/04/15 17:30:37;;;;;;;;;;;;;;;;;;5091949;27;19978;-66
2023/04/15 17:33:55;;;;;;;;;;;;;;;;;;5173816;27;19922;-66
2023/04/15 17:38:19;;;;;;;;;;;;;;;;;;5112029;27;19912;-67
2023/04/15 17:43:11;;;;;;;;;;;;;;;;;;5091316;27;19919;-66
2023/04/15 17:47:41;;;;;;;;;;;;;;;;;;5071373;28;19923;-66
2023/04/15 17:50:07;;;;;;;;;;;;;;;;;;5070615;28;19912;-66
2023/04/15 17:52:33;;;;;;;;;;;;;;;;;;5071017;28;20323;-65
2023/04/15 17:54:59;;;;;;;;;;;;;;;;;;5070492;28;20323;-67
2023/04/15 17:57:25;;;;;;;;;;;;;;;;;;5070863;28;19943;-67
2023/04/15 17:59:51;;;;;;;;;;;;;;;;;;5069503;28;19908;-66
2023/04/15 18:03:19;;;;;;;;;;;;;;;;;;5152426;27;19916;-67
2023/04/15 18:08:44;;;;;;;;;;;;;;;;;;5091535;27;19912;-66
2023/04/15 18:11:11;;;;;;;;;;;;;;;;;;5090899;28;20364;-68
2023/04/15 18:14:39;;;;;;;;;;;;;;;;;;5091554;27;19916;-67
2023/04/15 18:17:05;;;;;;;;;;;;;;;;;;5089523;28;19999;-67
2023/04/15 18:19:31;;;;;;;;;;;;;;;;;;5089913;28;19938;-67
2023/04/15 18:21:58;;;;;;;;;;;;;;;;;;5091235;28;19908;-67
2023/04/15 18:24:24;;;;;;;;;;;;;;;;;;5090782;28;20369;-67
2023/04/15 18:26:50;;;;;;;;;;;;;;;;;;5090998;28;19996;-69
2023/04/15 18:29:17;;;;;;;;;;;;;;;;;;5091072;28;19908;-68
2023/04/15 18:31:43;;;;;;;;;;;;;;;;;;5090501;28;19931;-67
2023/04/15 18:34:09;;;;;;;;;;;;;;;;;;5089459;28;19916;-67
2023/04/15 18:36:35;;;;;;;;;;;;;;;;;;5090861;28;19951;-67
2023/04/15 18:39:01;;;;;;;;;;;;;;;;;;5090349;28;19913;-68